sensor_id;sensor_type;location;lat;lon;timestamp;pressure;altitude;pressure_sealevel;temperature
11321;BMP180;5715;48.234;14.320;2023-04-01T00:01:49;97225.00;;;16.40
11321;BMP180;5715;48.234;14.320;2023-04-01T00:04:36;97224.00;;;16.40
11321;BMP180;5715;48.234;14.320;2023-04-01T00:07:24;97227.00;;;16.40
11321;BMP180;5715;48.234;14.320;2023-04-01T00:10:17;97231.00;;;16.30
11321;BMP180;5715;48.234;14.320;2023-04-01T00:13:05;97231.00;;;16.40
11321;BMP180;5715;48.234;14.320;2023-04-01T00:15:58;97230.00;;;16.30
11321;BMP180;5715;48.234;14.320;2023-04-01T00:18:48;97236.00;;;16.30
11321;BMP180;5715;48.234;14.320;2023-04-01T00:21:35;97241.00;;;16.30
11321;BMP180;5715;48.234;14.320;2023-04-01T00:24:24;97240.00;;;16.30
11321;BMP180;5715;48.234;14.320;2023-04-01T00:27:11;97232.00;;;16.30
11321;BMP180;5715;48.234;14.320;2023-04-01T00:29:59;97235.00;;;16.20
11321;BMP180;5715;48.234;14.320;2023-04-01T00:32:46;97240.00;;;16.20
11321;BMP180;5715;48.234;14.320;2023-04-01T00:35:34;97242.00;;;16.10
11321;BMP180;5715;48.234;14.320;2023-04-01T00:38:22;97243.00;;;16.20
11321;BMP180;5715;48.234;14.320;2023-04-01T00:41:12;97252.00;;;16.20
11321;BMP180;5715;48.234;14.320;2023-04-01T00:44:20;97261.00;;;16.20
11321;BMP180;5715;48.234;14.320;2023-04-01T00:47:08;97260.00;;;16.20
11321;BMP180;5715;48.234;14.320;2023-04-01T00:49:56;97259.00;;;16.20
11321;BMP180;5715;48.234;14.320;2023-04-01T00:52:44;97265.00;;;16.30
11321;BMP180;5715;48.234;14.320;2023-04-01T00:55:36;97255.00;;;15.90
11321;BMP180;5715;48.234;14.320;2023-04-01T00:58:29;97259.00;;;16.40
11321;BMP180;5715;48.234;14.320;2023-04-01T01:01:22;97260.00;;;16.40
11321;BMP180;5715;48.234;14.320;2023-04-01T01:04:29;97262.00;;;16.30
11321;BMP180;5715;48.234;14.320;2023-04-01T01:08:03;97266.00;;;16.30
11321;BMP180;5715;48.234;14.320;2023-04-01T01:10:50;97255.00;;;16.40
11321;BMP180;5715;48.234;14.320;2023-04-01T01:14:04;97252.00;;;16.50
11321;BMP180;5715;48.234;14.320;2023-04-01T01:17:06;97248.00;;;16.40
11321;BMP180;5715;48.234;14.320;2023-04-01T01:20:46;97247.00;;;16.50
11321;BMP180;5715;48.234;14.320;2023-04-01T01:27:11;97248.00;;;16.60
11321;BMP180;5715;48.234;14.320;2023-04-01T01:30:34;97240.00;;;16.50
11321;BMP180;5715;48.234;14.320;2023-04-01T01:34:11;97245.00;;;16.40
11321;BMP180;5715;48.234;14.320;2023-04-01T01:36:42;97238.00;;;16.50
11321;BMP180;5715;48.234;14.320;2023-04-01T01:39:35;97236.00;;;16.50
11321;BMP180;5715;48.234;14.320;2023-04-01T01:42:26;97236.00;;;16.50
11321;BMP180;5715;48.234;14.320;2023-04-01T01:45:20;97235.00;;;16.40
11321;BMP180;5715;48.234;14.320;2023-04-01T01:48:11;97228.00;;;16.40
11321;BMP180;5715;48.234;14.320;2023-04-01T01:51:00;97226.00;;;16.40
11321;BMP180;5715;48.234;14.320;2023-04-01T01:53:47;97229.00;;;16.30
11321;BMP180;5715;48.234;14.320;2023-04-01T01:56:35;97230.00;;;16.20
11321;BMP180;5715;48.234;14.320;2023-04-01T01:59:27;97227.00;;;16.20
11321;BMP180;5715;48.234;14.320;2023-04-01T02:02:17;97222.00;;;16.20
11321;BMP180;5715;48.234;14.320;2023-04-01T02:05:07;97221.00;;;16.30
11321;BMP180;5715;48.234;14.320;2023-04-01T02:08:09;97229.00;;;16.40
11321;BMP180;5715;48.234;14.320;2023-04-01T02:11:15;97224.00;;;16.30
11321;BMP180;5715;48.234;14.320;2023-04-01T02:14:19;97224.00;;;16.20
11321;BMP180;5715;48.234;14.320;2023-04-01T02:17:21;97220.00;;;16.50
11321;BMP180;5715;48.234;14.320;2023-04-01T02:20:15;97220.00;;;16.30
11321;BMP180;5715;48.234;14.320;2023-04-01T02:23:06;97228.00;;;16.30
11321;BMP180;5715;48.234;14.320;2023-04-01T02:25:55;97227.00;;;16.50
11321;BMP180;5715;48.234;14.320;2023-04-01T02:28:45;97221.00;;;16.30
11321;BMP180;5715;48.234;14.320;2023-04-01T02:31:34;97216.00;;;16.30
11321;BMP180;5715;48.234;14.320;2023-04-01T02:34:24;97222.00;;;16.10
11321;BMP180;5715;48.234;14.320;2023-04-01T02:37:13;97219.00;;;16.20
11321;BMP180;5715;48.234;14.320;2023-04-01T02:40:07;97223.00;;;16.30
11321;BMP180;5715;48.234;14.320;2023-04-01T02:42:55;97216.00;;;16.40
11321;BMP180;5715;48.234;14.320;2023-04-01T02:45:43;97218.00;;;16.50
11321;BMP180;5715;48.234;14.320;2023-04-01T02:48:31;97212.00;;;16.30
11321;BMP180;5715;48.234;14.320;2023-04-01T02:51:18;97219.00;;;16.80
11321;BMP180;5715;48.234;14.320;2023-04-01T02:54:06;97228.00;;;16.50
11321;BMP180;5715;48.234;14.320;2023-04-01T02:56:53;97226.00;;;16.20
11321;BMP180;5715;48.234;14.320;2023-04-01T02:59:41;97227.00;;;16.50
11321;BMP180;5715;48.234;14.320;2023-04-01T03:02:29;97225.00;;;16.50
11321;BMP180;5715;48.234;14.320;2023-04-01T03:05:16;97222.00;;;16.50
11321;BMP180;5715;48.234;14.320;2023-04-01T03:08:04;97223.00;;;16.40
11321;BMP180;5715;48.234;14.320;2023-04-01T03:10:52;97224.00;;;16.30
11321;BMP180;5715;48.234;14.320;2023-04-01T03:13:40;97226.00;;;16.40
11321;BMP180;5715;48.234;14.320;2023-04-01T03:16:27;97225.00;;;16.30
11321;BMP180;5715;48.234;14.320;2023-04-01T03:19:15;97233.00;;;16.30
11321;BMP180;5715;48.234;14.320;2023-04-01T03:22:02;97236.00;;;16.40
11321;BMP180;5715;48.234;14.320;2023-04-01T03:24:50;97240.00;;;16.40
11321;BMP180;5715;48.234;14.320;2023-04-01T03:27:38;97244.00;;;16.40
11321;BMP180;5715;48.234;14.320;2023-04-01T03:30:26;97262.00;;;16.50
11321;BMP180;5715;48.234;14.320;2023-04-01T03:33:14;97270.00;;;16.50
11321;BMP180;5715;48.234;14.320;2023-04-01T03:36:02;97259.00;;;15.90
11321;BMP180;5715;48.234;14.320;2023-04-01T03:38:53;97264.00;;;16.20
11321;BMP180;5715;48.234;14.320;2023-04-01T03:41:41;97270.00;;;16.50
11321;BMP180;5715;48.234;14.320;2023-04-01T03:44:33;97263.00;;;16.60
11321;BMP180;5715;48.234;14.320;2023-04-01T03:47:20;97269.00;;;16.60
11321;BMP180;5715;48.234;14.320;2023-04-01T03:50:09;97274.00;;;16.40
11321;BMP180;5715;48.234;14.320;2023-04-01T03:52:57;97279.00;;;16.30
11321;BMP180;5715;48.234;14.320;2023-04-01T03:55:44;97274.00;;;16.50
11321;BMP180;5715;48.234;14.320;2023-04-01T03:58:32;97275.00;;;16.30
11321;BMP180;5715;48.234;14.320;2023-04-01T04:01:22;97264.00;;;16.30
11321;BMP180;5715;48.234;14.320;2023-04-01T04:04:12;97268.00;;;16.30
11321;BMP180;5715;48.234;14.320;2023-04-01T04:07:00;97269.00;;;16.30
11321;BMP180;5715;48.234;14.320;2023-04-01T04:09:48;97267.00;;;16.20
11321;BMP180;5715;48.234;14.320;2023-04-01T04:12:35;97279.00;;;16.20
11321;BMP180;5715;48.234;14.320;2023-04-01T04:15:23;97283.00;;;16.30
11321;BMP180;5715;48.234;14.320;2023-04-01T04:18:11;97293.00;;;16.40
11321;BMP180;5715;48.234;14.320;2023-04-01T04:20:58;97292.00;;;16.00
11321;BMP180;5715;48.234;14.320;2023-04-01T04:23:46;97292.00;;;16.10
11321;BMP180;5715;48.234;14.320;2023-04-01T04:26:33;97295.00;;;16.30
11321;BMP180;5715;48.234;14.320;2023-04-01T04:29:21;97291.00;;;16.30
11321;BMP180;5715;48.234;14.320;2023-04-01T04:32:10;97289.00;;;16.10
11321;BMP180;5715;48.234;14.320;2023-04-01T04:34:57;97294.00;;;16.00
11321;BMP180;5715;48.234;14.320;2023-04-01T04:37:45;97292.00;;;16.00
11321;BMP180;5715;48.234;14.320;2023-04-01T04:40:32;97285.00;;;16.00
11321;BMP180;5715;48.234;14.320;2023-04-01T04:43:20;97293.00;;;16.00
11321;BMP180;5715;48.234;14.320;2023-04-01T04:46:11;97292.00;;;15.80
11321;BMP180;5715;48.234;14.320;2023-04-01T04:48:58;97297.00;;;15.90
11321;BMP180;5715;48.234;14.320;2023-04-01T04:51:46;97305.00;;;15.80
11321;BMP180;5715;48.234;14.320;2023-04-01T04:54:34;97301.00;;;15.70
11321;BMP180;5715;48.234;14.320;2023-04-01T04:57:21;97301.00;;;16.00
11321;BMP180;5715;48.234;14.320;2023-04-01T05:00:10;97302.00;;;16.00
11321;BMP180;5715;48.234;14.320;2023-04-01T05:02:58;97300.00;;;15.90
11321;BMP180;5715;48.234;14.320;2023-04-01T05:05:52;97296.00;;;16.00
11321;BMP180;5715;48.234;14.320;2023-04-01T05:08:41;97300.00;;;16.10
11321;BMP180;5715;48.234;14.320;2023-04-01T05:11:29;97288.00;;;16.10
11321;BMP180;5715;48.234;14.320;2023-04-01T05:14:17;97293.00;;;16.30
11321;BMP180;5715;48.234;14.320;2023-04-01T05:17:10;97296.00;;;16.40
11321;BMP180;5715;48.234;14.320;2023-04-01T05:19:58;97294.00;;;16.70
11321;BMP180;5715;48.234;14.320;2023-04-01T05:22:45;97307.00;;;16.90
11321;BMP180;5715;48.234;14.320;2023-04-01T05:25:33;97304.00;;;17.10
11321;BMP180;5715;48.234;14.320;2023-04-01T05:28:21;97302.00;;;17.10
11321;BMP180;5715;48.234;14.320;2023-04-01T05:31:09;97309.00;;;16.90
11321;BMP180;5715;48.234;14.320;2023-04-01T05:33:57;97316.00;;;16.90
11321;BMP180;5715;48.234;14.320;2023-04-01T05:36:44;97316.00;;;16.80
11321;BMP180;5715;48.234;14.320;2023-04-01T05:39:36;97306.00;;;17.00
11321;BMP180;5715;48.234;14.320;2023-04-01T05:42:24;97311.00;;;16.70
11321;BMP180;5715;48.234;14.320;2023-04-01T05:45:12;97306.00;;;16.90
11321;BMP180;5715;48.234;14.320;2023-04-01T05:48:03;97308.00;;;16.60
11321;BMP180;5715;48.234;14.320;2023-04-01T05:50:50;97313.00;;;16.90
11321;BMP180;5715;48.234;14.320;2023-04-01T05:53:38;97311.00;;;16.70
11321;BMP180;5715;48.234;14.320;2023-04-01T05:56:26;97317.00;;;16.60
11321;BMP180;5715;48.234;14.320;2023-04-01T05:59:13;97317.00;;;16.70
11321;BMP180;5715;48.234;14.320;2023-04-01T06:02:01;97313.00;;;17.10
11321;BMP180;5715;48.234;14.320;2023-04-01T06:04:49;97331.00;;;17.10
11321;BMP180;5715;48.234;14.320;2023-04-01T06:07:36;97321.00;;;16.80
11321;BMP180;5715;48.234;14.320;2023-04-01T06:27:43;97328.00;;;17.60
11321;BMP180;5715;48.234;14.320;2023-04-01T06:31:10;97329.00;;;17.60
11321;BMP180;5715;48.234;14.320;2023-04-01T06:37:50;97334.00;;;17.70
11321;BMP180;5715;48.234;14.320;2023-04-01T06:41:28;97337.00;;;17.70
11321;BMP180;5715;48.234;14.320;2023-04-01T06:44:35;97338.00;;;17.90
11321;BMP180;5715;48.234;14.320;2023-04-01T06:51:07;97338.00;;;17.90
11321;BMP180;5715;48.234;14.320;2023-04-01T06:54:09;97335.00;;;18.10
11321;BMP180;5715;48.234;14.320;2023-04-01T06:57:35;97338.00;;;18.60
11321;BMP180;5715;48.234;14.320;2023-04-01T07:00:32;97336.00;;;18.90
11321;BMP180;5715;48.234;14.320;2023-04-01T07:06:39;97336.00;;;19.20
11321;BMP180;5715;48.234;14.320;2023-04-01T07:09:42;97328.00;;;19.50
11321;BMP180;5715;48.234;14.320;2023-04-01T07:12:43;97330.00;;;19.50
11321;BMP180;5715;48.234;14.320;2023-04-01T07:15:41;97330.00;;;19.50
11321;BMP180;5715;48.234;14.320;2023-04-01T07:18:45;97326.00;;;19.10
11321;BMP180;5715;48.234;14.320;2023-04-01T07:22:00;97330.00;;;18.80
11321;BMP180;5715;48.234;14.320;2023-04-01T07:24:49;97331.00;;;18.30
11321;BMP180;5715;48.234;14.320;2023-04-01T07:27:37;97334.00;;;18.70
11321;BMP180;5715;48.234;14.320;2023-04-01T07:30:30;97340.00;;;19.00
11321;BMP180;5715;48.234;14.320;2023-04-01T07:33:33;97338.00;;;19.10
11321;BMP180;5715;48.234;14.320;2023-04-01T07:39:51;97338.00;;;19.20
11321;BMP180;5715;48.234;14.320;2023-04-01T07:46:39;97345.00;;;19.00
11321;BMP180;5715;48.234;14.320;2023-04-01T07:49:57;97340.00;;;18.50
11321;BMP180;5715;48.234;14.320;2023-04-01T07:56:20;97342.00;;;18.60
11321;BMP180;5715;48.234;14.320;2023-04-01T07:59:28;97352.00;;;18.00
11321;BMP180;5715;48.234;14.320;2023-04-01T08:05:41;97355.00;;;18.80
11321;BMP180;5715;48.234;14.320;2023-04-01T08:09:26;97354.00;;;19.50
11321;BMP180;5715;48.234;14.320;2023-04-01T08:22:38;97352.00;;;18.90
11321;BMP180;5715;48.234;14.320;2023-04-01T08:25:29;97354.00;;;18.90
11321;BMP180;5715;48.234;14.320;2023-04-01T08:28:27;97348.00;;;18.70
11321;BMP180;5715;48.234;14.320;2023-04-01T08:34:40;97347.00;;;19.40
11321;BMP180;5715;48.234;14.320;2023-04-01T08:37:36;97348.00;;;19.50
11321;BMP180;5715;48.234;14.320;2023-04-01T08:44:21;97339.00;;;19.40
11321;BMP180;5715;48.234;14.320;2023-04-01T09:01:21;97336.00;;;20.60
11321;BMP180;5715;48.234;14.320;2023-04-01T09:14:46;97338.00;;;21.00
11321;BMP180;5715;48.234;14.320;2023-04-01T09:27:56;97347.00;;;20.70
11321;BMP180;5715;48.234;14.320;2023-04-01T09:37:36;97349.00;;;20.70
11321;BMP180;5715;48.234;14.320;2023-04-01T09:44:25;97341.00;;;20.60
11321;BMP180;5715;48.234;14.320;2023-04-01T09:47:47;97339.00;;;21.00
11321;BMP180;5715;48.234;14.320;2023-04-01T10:04:30;97342.00;;;21.50
11321;BMP180;5715;48.234;14.320;2023-04-01T10:12:07;97345.00;;;21.50
11321;BMP180;5715;48.234;14.320;2023-04-01T10:22:21;97334.00;;;21.90
11321;BMP180;5715;48.234;14.320;2023-04-01T10:41:47;97326.00;;;22.20
11321;BMP180;5715;48.234;14.320;2023-04-01T10:54:49;97325.00;;;20.70
11321;BMP180;5715;48.234;14.320;2023-04-01T11:28:44;97292.00;;;22.10
11321;BMP180;5715;48.234;14.320;2023-04-01T11:32:14;97283.00;;;22.30
11321;BMP180;5715;48.234;14.320;2023-04-01T11:39:17;97282.00;;;21.50
11321;BMP180;5715;48.234;14.320;2023-04-01T12:01:13;97259.00;;;22.80
11321;BMP180;5715;48.234;14.320;2023-04-01T12:13:54;97262.00;;;23.00
11321;BMP180;5715;48.234;14.320;2023-04-01T12:17:09;97257.00;;;22.40
11321;BMP180;5715;48.234;14.320;2023-04-01T12:27:23;97259.00;;;23.50
11321;BMP180;5715;48.234;14.320;2023-04-01T12:30:56;97254.00;;;23.40
11321;BMP180;5715;48.234;14.320;2023-04-01T12:43:33;97296.00;;;22.40
11321;BMP180;5715;48.234;14.320;2023-04-01T13:11:00;97309.00;;;21.80
11321;BMP180;5715;48.234;14.320;2023-04-01T13:17:41;97304.00;;;22.40
11321;BMP180;5715;48.234;14.320;2023-04-01T13:24:02;97300.00;;;22.50
11321;BMP180;5715;48.234;14.320;2023-04-01T13:36:37;97306.00;;;22.50
11321;BMP180;5715;48.234;14.320;2023-04-01T13:42:34;97302.00;;;22.70
11321;BMP180;5715;48.234;14.320;2023-04-01T13:46:17;97293.00;;;22.60
11321;BMP180;5715;48.234;14.320;2023-04-01T14:02:41;97307.00;;;23.10
11321;BMP180;5715;48.234;14.320;2023-04-01T14:12:54;97299.00;;;22.10
11321;BMP180;5715;48.234;14.320;2023-04-01T14:23:06;97309.00;;;21.30
11321;BMP180;5715;48.234;14.320;2023-04-01T14:26:15;97335.00;;;20.70
11321;BMP180;5715;48.234;14.320;2023-04-01T14:32:54;97342.00;;;21.20
11321;BMP180;5715;48.234;14.320;2023-04-01T14:51:39;97357.00;;;21.20
11321;BMP180;5715;48.234;14.320;2023-04-01T14:54:40;97370.00;;;20.70
11321;BMP180;5715;48.234;14.320;2023-04-01T14:57:31;97366.00;;;20.10
11321;BMP180;5715;48.234;14.320;2023-04-01T15:00:20;97354.00;;;19.60
11321;BMP180;5715;48.234;14.320;2023-04-01T15:03:22;97352.00;;;19.60
11321;BMP180;5715;48.234;14.320;2023-04-01T15:06:37;97354.00;;;19.60
11321;BMP180;5715;48.234;14.320;2023-04-01T15:13:15;97350.00;;;19.40
11321;BMP180;5715;48.234;14.320;2023-04-01T15:16:33;97365.00;;;19.30
11321;BMP180;5715;48.234;14.320;2023-04-01T15:19:37;97370.00;;;18.90
11321;BMP180;5715;48.234;14.320;2023-04-01T15:40:11;97401.00;;;18.70
11321;BMP180;5715;48.234;14.320;2023-04-01T15:43:43;97389.00;;;18.70
11321;BMP180;5715;48.234;14.320;2023-04-01T15:46:48;97401.00;;;18.80
11321;BMP180;5715;48.234;14.320;2023-04-01T15:49:43;97394.00;;;18.70
11321;BMP180;5715;48.234;14.320;2023-04-01T15:52:50;97397.00;;;18.80
11321;BMP180;5715;48.234;14.320;2023-04-01T15:55:57;97400.00;;;18.40
11321;BMP180;5715;48.234;14.320;2023-04-01T16:05:34;97393.00;;;18.60
11321;BMP180;5715;48.234;14.320;2023-04-01T16:12:18;97411.00;;;18.30
11321;BMP180;5715;48.234;14.320;2023-04-01T16:19:15;97419.00;;;18.50
11321;BMP180;5715;48.234;14.320;2023-04-01T16:26:07;97429.00;;;18.10
11321;BMP180;5715;48.234;14.320;2023-04-01T16:29:28;97436.00;;;18.30
11321;BMP180;5715;48.234;14.320;2023-04-01T16:32:53;97441.00;;;18.10
11321;BMP180;5715;48.234;14.320;2023-04-01T16:42:46;97449.00;;;18.40
11321;BMP180;5715;48.234;14.320;2023-04-01T16:54:55;97465.00;;;18.30
11321;BMP180;5715;48.234;14.320;2023-04-01T17:00:49;97476.00;;;18.00
11321;BMP180;5715;48.234;14.320;2023-04-01T17:03:46;97477.00;;;18.10
11321;BMP180;5715;48.234;14.320;2023-04-01T17:13:40;97473.00;;;18.00
11321;BMP180;5715;48.234;14.320;2023-04-01T17:17:42;97479.00;;;18.00
11321;BMP180;5715;48.234;14.320;2023-04-01T17:34:00;97483.00;;;17.50
11321;BMP180;5715;48.234;14.320;2023-04-01T17:50:24;97494.00;;;17.40
11321;BMP180;5715;48.234;14.320;2023-04-01T17:54:02;97499.00;;;17.60
11321;BMP180;5715;48.234;14.320;2023-04-01T18:00:03;97513.00;;;17.60
11321;BMP180;5715;48.234;14.320;2023-04-01T18:07:31;97516.00;;;17.70
11321;BMP180;5715;48.234;14.320;2023-04-01T18:10:34;97515.00;;;17.30
11321;BMP180;5715;48.234;14.320;2023-04-01T18:14:02;97520.00;;;17.50
11321;BMP180;5715;48.234;14.320;2023-04-01T18:17:18;97517.00;;;17.50
11321;BMP180;5715;48.234;14.320;2023-04-01T18:20:41;97527.00;;;17.60
11321;BMP180;5715;48.234;14.320;2023-04-01T18:23:35;97530.00;;;17.60
11321;BMP180;5715;48.234;14.320;2023-04-01T18:26:30;97533.00;;;17.50
11321;BMP180;5715;48.234;14.320;2023-04-01T18:33:09;97537.00;;;17.50
11321;BMP180;5715;48.234;14.320;2023-04-01T18:36:37;97543.00;;;17.70
11321;BMP180;5715;48.234;14.320;2023-04-01T18:39:40;97540.00;;;17.60
11321;BMP180;5715;48.234;14.320;2023-04-01T18:42:59;97542.00;;;17.50
11321;BMP180;5715;48.234;14.320;2023-04-01T18:46:02;97555.00;;;17.60
11321;BMP180;5715;48.234;14.320;2023-04-01T18:52:41;97546.00;;;17.70
11321;BMP180;5715;48.234;14.320;2023-04-01T19:05:19;97567.00;;;17.50
11321;BMP180;5715;48.234;14.320;2023-04-01T19:08:35;97558.00;;;17.30
11321;BMP180;5715;48.234;14.320;2023-04-01T19:14:54;97557.00;;;17.20
11321;BMP180;5715;48.234;14.320;2023-04-01T19:21:57;97576.00;;;17.20
11321;BMP180;5715;48.234;14.320;2023-04-01T19:31:45;97569.00;;;17.40
11321;BMP180;5715;48.234;14.320;2023-04-01T19:34:43;97572.00;;;17.30
11321;BMP180;5715;48.234;14.320;2023-04-01T19:37:56;97567.00;;;17.20
11321;BMP180;5715;48.234;14.320;2023-04-01T19:40:58;97566.00;;;17.30
11321;BMP180;5715;48.234;14.320;2023-04-01T19:53:59;97573.00;;;17.40
11321;BMP180;5715;48.234;14.320;2023-04-01T19:57:17;97582.00;;;17.20
11321;BMP180;5715;48.234;14.320;2023-04-01T20:00:37;97584.00;;;17.30
11321;BMP180;5715;48.234;14.320;2023-04-01T20:03:55;97580.00;;;17.40
11321;BMP180;5715;48.234;14.320;2023-04-01T20:07:50;97585.00;;;17.40
11321;BMP180;5715;48.234;14.320;2023-04-01T20:10:24;97587.00;;;17.30
11321;BMP180;5715;48.234;14.320;2023-04-01T20:17:07;97588.00;;;17.40
11321;BMP180;5715;48.234;14.320;2023-04-01T20:26:38;97591.00;;;17.30
11321;BMP180;5715;48.234;14.320;2023-04-01T20:29:47;97589.00;;;17.40
11321;BMP180;5715;48.234;14.320;2023-04-01T20:46:20;97600.00;;;17.20
11321;BMP180;5715;48.234;14.320;2023-04-01T20:52:40;97597.00;;;17.10
11321;BMP180;5715;48.234;14.320;2023-04-01T20:59:23;97609.00;;;17.00
11321;BMP180;5715;48.234;14.320;2023-04-01T21:02:52;97612.00;;;17.30
11321;BMP180;5715;48.234;14.320;2023-04-01T21:09:38;97613.00;;;17.00
11321;BMP180;5715;48.234;14.320;2023-04-01T21:19:36;97607.00;;;17.30
11321;BMP180;5715;48.234;14.320;2023-04-01T21:26:30;97623.00;;;17.20
11321;BMP180;5715;48.234;14.320;2023-04-01T21:32:40;97632.00;;;17.20
11321;BMP180;5715;48.234;14.320;2023-04-01T21:39:42;97631.00;;;17.50
11321;BMP180;5715;48.234;14.320;2023-04-01T22:00:21;97638.00;;;17.30
11321;BMP180;5715;48.234;14.320;2023-04-01T22:03:33;97642.00;;;17.40
11321;BMP180;5715;48.234;14.320;2023-04-01T22:13:03;97638.00;;;17.50
11321;BMP180;5715;48.234;14.320;2023-04-01T22:19:40;97646.00;;;17.20
11321;BMP180;5715;48.234;14.320;2023-04-01T22:32:32;97654.00;;;17.30
11321;BMP180;5715;48.234;14.320;2023-04-01T22:45:46;97662.00;;;17.20
11321;BMP180;5715;48.234;14.320;2023-04-01T22:51:43;97653.00;;;17.10
11321;BMP180;5715;48.234;14.320;2023-04-01T22:54:52;97666.00;;;17.10
11321;BMP180;5715;48.234;14.320;2023-04-01T22:58:18;97663.00;;;17.20
11321;BMP180;5715;48.234;14.320;2023-04-01T23:01:17;97671.00;;;17.30
11321;BMP180;5715;48.234;14.320;2023-04-01T23:04:15;97673.00;;;17.30
11321;BMP180;5715;48.234;14.320;2023-04-01T23:13:35;97670.00;;;17.20
11321;BMP180;5715;48.234;14.320;2023-04-01T23:20:02;97678.00;;;16.80
11321;BMP180;5715;48.234;14.320;2023-04-01T23:28:58;97687.00;;;17.10
11321;BMP180;5715;48.234;14.320;2023-04-01T23:32:03;97688.00;;;16.90
11321;BMP180;5715;48.234;14.320;2023-04-01T23:34:58;97686.00;;;17.00
11321;BMP180;5715;48.234;14.320;2023-04-01T23:37:47;97685.00;;;16.90
11321;BMP180;5715;48.234;14.320;2023-04-01T23:40:35;97692.00;;;17.20
11321;BMP180;5715;48.234;14.320;2023-04-01T23:43:32;97683.00;;;16.80
11321;BMP180;5715;48.234;14.320;2023-04-01T23:46:25;97681.00;;;17.00
11321;BMP180;5715;48.234;14.320;2023-04-01T23:49:26;97687.00;;;17.00
11321;BMP180;5715;48.234;14.320;2023-04-01T23:52:29;97675.00;;;17.00
11321;BMP180;5715;48.234;14.320;2023-04-01T23:55:25;97674.00;;;16.70
11321;BMP180;5715;48.234;14.320;2023-04-01T23:58:27;97681.00;;;16.90
